Time,TemperatureF,DewpointF,PressureIn,WindDirection,WindDirectionDegrees,WindSpeedMPH,WindSpeedGustMPH,Humidity,HourlyPrecipIn,Conditions,Clouds,dailyrainin,SoftwareType,DateUTC
2013-05-04 00:06:00,42.1,25.0,30.04,East,98,0.0,0.0,51,0.00,,,0.00,weatherlink.com 1.10,2013-05-04 06:06:00,
2013-05-04 00:21:00,41.6,25.0,30.04,East,97,0.0,0.0,52,0.00,,,0.00,weatherlink.com 1.10,2013-05-04 06:21:00,
2013-05-04 00:36:00,40.9,25.0,30.04,East,97,0.0,0.0,54,0.00,,,0.00,weatherlink.com 1.10,2013-05-04 06:36:00,
2013-05-04 00:51:00,41.3,26.0,30.04,East,97,0.0,0.0,56,0.00,,,0.00,weatherlink.com 1.10,2013-05-04 06:51:00,
2013-05-04 01:06:00,41.0,26.0,30.04,South,176,0.0,1.0,56,0.00,,,0.00,weatherlink.com 1.10,2013-05-04 07:06:00,
2013-05-04 01:21:00,40.4,26.0,30.03,SSE,168,0.0,0.0,58,0.00,,,0.00,weatherlink.com 1.10,2013-05-04 07:21:00,
2013-05-04 01:36:00,39.9,26.0,30.03,SSE,168,0.0,0.0,59,0.00,,,0.00,weatherlink.com 1.10,2013-05-04 07:36:00,
2013-05-04 01:51:00,39.9,26.0,30.02,South,169,0.0,0.0,59,0.00,,,0.00,weatherlink.com 1.10,2013-05-04 07:51:00,
2013-05-04 02:06:00,39.6,27.0,30.02,South,169,0.0,0.0,60,0.00,,,0.00,weatherlink.com 1.10,2013-05-04 08:06:00,
2013-05-04 02:21:00,38.9,26.0,30.01,South,169,0.0,0.0,60,0.00,,,0.00,weatherlink.com 1.10,2013-05-04 08:21:00,
2013-05-04 02:37:00,38.3,26.0,30.01,South,169,0.0,0.0,62,0.00,,,0.00,weatherlink.com 1.10,2013-05-04 08:37:00,
2013-05-04 02:52:00,38.3,27.0,30.00,South,169,0.0,0.0,63,0.00,,,0.00,weatherlink.com 1.10,2013-05-04 08:52:00,
2013-05-04 03:07:00,38.5,27.0,30.00,South,170,0.0,1.0,63,0.00,,,0.00,weatherlink.com 1.10,2013-05-04 09:07:00,
2013-05-04 03:22:00,38.3,27.0,30.00,South,171,0.0,1.0,65,0.00,,,0.00,weatherlink.com 1.10,2013-05-04 09:22:00,
2013-05-04 03:37:00,38.3,28.0,30.00,SSE,160,0.0,0.0,66,0.00,,,0.00,weatherlink.com 1.10,2013-05-04 09:37:00,
2013-05-04 03:52:00,38.3,29.0,30.00,SSE,160,0.0,1.0,68,0.00,,,0.00,weatherlink.com 1.10,2013-05-04 09:52:00,
2013-05-04 04:07:00,38.5,29.0,30.00,SW,222,0.0,1.0,68,0.00,,,0.00,weatherlink.com 1.10,2013-05-04 10:07:00,
2013-05-04 04:22:00,38.1,29.0,30.00,SW,222,0.0,0.0,69,0.00,,,0.00,weatherlink.com 1.10,2013-05-04 10:22:00,
2013-05-04 04:37:00,37.8,29.0,30.00,SW,222,0.0,1.0,70,0.00,,,0.00,weatherlink.com 1.10,2013-05-04 10:37:00,
2013-05-04 04:52:00,37.4,28.0,30.00,SW,222,0.0,0.0,69,0.00,,,0.00,weatherlink.com 1.10,2013-05-04 10:52:00,
2013-05-04 05:07:00,36.4,28.0,30.00,SW,222,0.0,0.0,71,0.00,,,0.00,weatherlink.com 1.10,2013-05-04 11:07:00,
2013-05-04 05:22:00,36.6,28.0,30.00,SW,222,0.0,0.0,70,0.00,,,0.00,weatherlink.com 1.10,2013-05-04 11:22:00,
2013-05-04 05:37:00,36.6,28.0,30.00,SSW,207,0.0,1.0,70,0.00,,,0.00,weatherlink.com 1.10,2013-05-04 11:37:00,
2013-05-04 06:07:00,36.2,27.0,30.01,South,185,0.0,1.0,70,0.00,,,0.00,weatherlink.com 1.10,2013-05-04 12:07:00,
2013-05-04 06:22:00,36.1,27.0,30.01,South,184,0.0,0.0,70,0.00,,,0.00,weatherlink.com 1.10,2013-05-04 12:22:00,
2013-05-04 06:37:00,36.7,28.0,30.02,SW,225,0.0,1.0,70,0.00,,,0.00,weatherlink.com 1.10,2013-05-04 12:37:00,
2013-05-04 06:52:00,37.2,28.0,30.02,South,181,1.0,1.0,69,0.00,,,0.00,weatherlink.com 1.10,2013-05-04 12:52:00,
2013-05-04 07:07:00,38.5,28.0,30.02,South,188,0.0,1.0,67,0.00,,,0.00,weatherlink.com 1.10,2013-05-04 13:07:00,
2013-05-04 07:22:00,39.7,29.0,30.03,SW,225,0.0,1.0,66,0.00,,,0.00,weatherlink.com 1.10,2013-05-04 13:22:00,
2013-05-04 07:37:00,41.5,30.0,30.03,NNW,330,0.0,2.0,65,0.00,,,0.00,weatherlink.com 1.10,2013-05-04 13:37:00,
2013-05-04 07:52:00,42.9,30.0,30.03,NW,326,1.0,4.0,60,0.00,,,0.00,weatherlink.com 1.10,2013-05-04 13:52:00,
2013-05-04 08:07:00,43.9,30.0,30.03,NE,34,0.0,3.0,58,0.00,,,0.00,weatherlink.com 1.10,2013-05-04 14:07:00,
2013-05-04 08:22:00,45.2,30.0,30.03,North,352,2.0,4.0,56,0.00,,,0.00,weatherlink.com 1.10,2013-05-04 14:22:00,
2013-05-04 08:37:00,45.8,30.0,30.03,NE,41,4.0,6.0,55,0.00,,,0.00,weatherlink.com 1.10,2013-05-04 14:37:00,
2013-05-04 08:52:00,45.6,31.0,30.03,North,350,3.0,5.0,56,0.00,,,0.00,weatherlink.com 1.10,2013-05-04 14:52:00,
2013-05-04 09:07:00,46.3,32.0,30.03,North,359,2.0,3.0,57,0.00,,,0.00,weatherlink.com 1.10,2013-05-04 15:07:00,
2013-05-04 09:22:00,47.3,32.0,30.03,NE,34,3.0,6.0,56,0.00,,,0.00,weatherlink.com 1.10,2013-05-04 15:22:00,
2013-05-04 09:37:00,48.4,33.0,30.03,East,90,1.0,5.0,55,0.00,,,0.00,weatherlink.com 1.10,2013-05-04 15:37:00,
2013-05-04 09:52:00,49.2,32.0,30.03,NE,39,1.0,5.0,52,0.00,,,0.00,weatherlink.com 1.10,2013-05-04 15:52:00,
2013-05-04 10:07:00,50.3,32.0,30.03,NNE,20,2.0,6.0,49,0.00,,,0.00,weatherlink.com 1.10,2013-05-04 16:07:00,
2013-05-04 10:22:00,52.1,33.0,30.03,NW,313,1.0,7.0,49,0.00,,,0.00,weatherlink.com 1.10,2013-05-04 16:22:00,
2013-05-04 10:37:00,53.1,33.0,30.03,North,354,3.0,6.0,46,0.00,,,0.00,weatherlink.com 1.10,2013-05-04 16:37:00,
2013-05-04 10:52:00,54.0,32.0,30.03,NNE,19,3.0,5.0,44,0.00,,,0.00,weatherlink.com 1.10,2013-05-04 16:52:00,
2013-05-04 11:08:00,54.3,33.0,30.03,ESE,102,2.0,7.0,45,0.00,,,0.00,weatherlink.com 1.10,2013-05-04 17:08:00,
2013-05-04 11:23:00,56.8,31.0,30.02,NNW,338,3.0,6.0,37,0.00,,,0.00,weatherlink.com 1.10,2013-05-04 17:23:00,
2013-05-04 11:38:00,57.6,31.0,30.02,SSW,210,0.0,5.0,36,0.00,,,0.00,weatherlink.com 1.10,2013-05-04 17:38:00,
2013-05-04 11:53:00,59.3,29.0,30.02,East,84,2.0,4.0,32,0.00,,,0.00,weatherlink.com 1.10,2013-05-04 17:53:00,
2013-05-04 12:08:00,59.2,28.0,30.02,ESE,122,1.0,6.0,31,0.00,,,0.00,weatherlink.com 1.10,2013-05-04 18:08:00,
2013-05-04 12:23:00,59.1,28.0,30.02,SSW,202,0.0,7.0,30,0.00,,,0.00,weatherlink.com 1.10,2013-05-04 18:23:00,
2013-05-04 12:38:00,60.0,28.0,30.02,ENE,58,1.0,6.0,30,0.00,,,0.00,weatherlink.com 1.10,2013-05-04 18:38:00,
2013-05-04 12:53:00,60.2,28.0,30.01,ENE,58,2.0,6.0,29,0.00,,,0.00,weatherlink.com 1.10,2013-05-04 18:53:00,
2013-05-04 13:08:00,60.8,25.0,30.00,NNW,340,0.0,4.0,26,0.00,,,0.00,weatherlink.com 1.10,2013-05-04 19:08:00,
2013-05-04 13:23:00,60.3,26.0,30.01,North,8,4.0,7.0,27,0.00,,,0.00,weatherlink.com 1.10,2013-05-04 19:23:00,
2013-05-04 13:38:00,61.2,26.0,30.00,ENE,67,2.0,6.0,26,0.00,,,0.00,weatherlink.com 1.10,2013-05-04 19:38:00,
2013-05-04 13:53:00,62.4,27.0,30.00,ENE,63,1.0,6.0,26,0.00,,,0.00,weatherlink.com 1.10,2013-05-04 19:53:00,
2013-05-04 14:08:00,62.2,27.0,30.00,NE,37,2.0,5.0,26,0.00,,,0.00,weatherlink.com 1.10,2013-05-04 20:08:00,
2013-05-04 14:23:00,61.6,26.0,30.00,ESE,108,0.0,5.0,26,0.00,,,0.00,weatherlink.com 1.10,2013-05-04 20:23:00,
2013-05-04 14:38:00,62.1,27.0,30.00,NNW,342,5.0,7.0,26,0.00,,,0.00,weatherlink.com 1.10,2013-05-04 20:38:00,
2013-05-04 14:53:00,61.4,27.0,29.99,SW,225,1.0,9.0,27,0.00,,,0.00,weatherlink.com 1.10,2013-05-04 20:53:00,
2013-05-04 15:08:00,62.1,28.0,29.99,NNE,18,3.0,7.0,27,0.00,,,0.00,weatherlink.com 1.10,2013-05-04 21:08:00,
2013-05-04 15:23:00,62.2,29.0,29.98,NE,56,0.0,6.0,28,0.00,,,0.00,weatherlink.com 1.10,2013-05-04 21:23:00,
2013-05-04 15:38:00,61.2,27.0,29.98,ENE,67,1.0,7.0,27,0.00,,,0.00,weatherlink.com 1.10,2013-05-04 21:38:00,
2013-05-04 15:53:00,62.4,27.0,29.98,ENE,73,3.0,5.0,26,0.00,,,0.00,weatherlink.com 1.10,2013-05-04 21:53:00,
2013-05-04 16:09:00,62.6,27.0,29.98,North,8,2.0,4.0,26,0.00,,,0.00,weatherlink.com 1.10,2013-05-04 22:09:00,
2013-05-04 16:23:00,59.8,26.0,29.99,East,89,2.0,5.0,28,0.00,,,0.00,weatherlink.com 1.10,2013-05-04 22:23:00,
2013-05-04 16:38:00,60.5,27.0,29.99,NE,56,3.0,7.0,28,0.00,,,0.00,weatherlink.com 1.10,2013-05-04 22:38:00,
2013-05-04 16:53:00,59.7,27.0,29.98,NE,50,2.0,7.0,29,0.00,,,0.00,weatherlink.com 1.10,2013-05-04 22:53:00,
2013-05-04 17:08:00,58.8,26.0,30.00,East,96,1.0,5.0,29,0.00,,,0.00,weatherlink.com 1.10,2013-05-04 23:08:00,
2013-05-04 17:23:00,59.1,27.0,30.00,SE,145,0.0,6.0,29,0.00,,,0.00,weatherlink.com 1.10,2013-05-04 23:23:00,
2013-05-04 17:38:00,58.0,26.0,30.00,NE,51,2.0,5.0,29,0.00,,,0.00,weatherlink.com 1.10,2013-05-04 23:38:00,
2013-05-04 17:53:00,57.9,26.0,30.01,NW,321,2.0,4.0,29,0.00,,,0.00,weatherlink.com 1.10,2013-05-04 23:53:00,
2013-05-04 18:23:00,56.6,24.0,30.02,East,86,2.0,4.0,29,0.00,,,0.00,weatherlink.com 1.10,2013-05-05 00:23:00,
2013-05-04 18:38:00,56.5,24.0,30.02,East,92,2.0,7.0,29,0.00,,,0.00,weatherlink.com 1.10,2013-05-05 00:38:00,
2013-05-04 18:53:00,55.6,24.0,30.02,East,96,3.0,3.0,30,0.00,,,0.00,weatherlink.com 1.10,2013-05-05 00:53:00,
2013-05-04 19:08:00,54.5,24.0,30.02,ENE,65,2.0,4.0,31,0.00,,,0.00,weatherlink.com 1.10,2013-05-05 01:08:00,
2013-05-04 19:23:00,53.9,25.0,30.02,ENE,72,3.0,5.0,33,0.00,,,0.00,weatherlink.com 1.10,2013-05-05 01:23:00,
2013-05-04 19:38:00,53.2,25.0,30.04,ESE,103,2.0,5.0,33,0.00,,,0.00,weatherlink.com 1.10,2013-05-05 01:38:00,
2013-05-04 19:53:00,52.5,25.0,30.04,East,90,0.0,4.0,34,0.00,,,0.00,weatherlink.com 1.10,2013-05-05 01:53:00,
2013-05-04 20:08:00,51.4,26.0,30.04,East,95,0.0,4.0,37,0.00,,,0.00,weatherlink.com 1.10,2013-05-05 02:08:00,
2013-05-04 20:23:00,50.5,25.0,30.05,East,84,0.0,3.0,37,0.00,,,0.00,weatherlink.com 1.10,2013-05-05 02:23:00,
2013-05-04 20:38:00,49.8,25.0,30.05,East,88,0.0,3.0,38,0.00,,,0.00,weatherlink.com 1.10,2013-05-05 02:38:00,
2013-05-04 20:53:00,49.3,24.0,30.06,East,95,0.0,2.0,38,0.00,,,0.00,weatherlink.com 1.10,2013-05-05 02:53:00,
2013-05-04 21:08:00,48.6,24.0,30.07,ESE,115,0.0,3.0,39,0.00,,,0.00,weatherlink.com 1.10,2013-05-05 03:08:00,
2013-05-04 21:23:00,48.3,24.0,30.08,East,97,2.0,5.0,39,0.00,,,0.00,weatherlink.com 1.10,2013-05-05 03:23:00,
2013-05-04 21:38:00,48.1,23.0,30.09,SE,142,2.0,7.0,38,0.00,,,0.00,weatherlink.com 1.10,2013-05-05 03:38:00,
2013-05-04 21:53:00,47.7,22.0,30.09,SSW,211,0.0,5.0,37,0.00,,,0.00,weatherlink.com 1.10,2013-05-05 03:53:00,
2013-05-04 22:08:00,47.1,22.0,30.10,SW,225,1.0,2.0,38,0.00,,,0.00,weatherlink.com 1.10,2013-05-05 04:08:00,
2013-05-04 22:23:00,46.8,23.0,30.10,ESE,103,0.0,5.0,39,0.00,,,0.00,weatherlink.com 1.10,2013-05-05 04:23:00,
2013-05-04 22:38:00,46.3,22.0,30.10,SSW,200,1.0,4.0,39,0.00,,,0.00,weatherlink.com 1.10,2013-05-05 04:38:00,
2013-05-04 22:54:00,45.7,23.0,30.11,East,99,3.0,6.0,41,0.00,,,0.00,weatherlink.com 1.10,2013-05-05 04:54:00,
2013-05-04 23:09:00,45.1,23.0,30.11,SSW,210,1.0,1.0,42,0.00,,,0.00,weatherlink.com 1.10,2013-05-05 05:09:00,
2013-05-04 23:24:00,44.9,22.0,30.11,East,93,0.0,2.0,41,0.00,,,0.00,weatherlink.com 1.10,2013-05-05 05:24:00,
2013-05-04 23:39:00,44.8,22.0,30.11,SE,131,0.0,1.0,41,0.00,,,0.00,weatherlink.com 1.10,2013-05-05 05:39:00,
2013-05-04 23:54:00,44.1,22.0,30.11,SSE,163,0.0,1.0,41,0.00,,,0.00,weatherlink.com 1.10,2013-05-05 05:54:00,